sensor_id;sensor_type;location;lat;lon;timestamp;P1;durP1;ratioP1;P2;durP2;ratioP2
16472;SDS011;8347;52.486;13.432;2023-11-21T00:00:16;9.15;;;6.22;;
16472;SDS011;8347;52.486;13.432;2023-11-21T00:03:03;12.60;;;7.13;;
16472;SDS011;8347;52.486;13.432;2023-11-21T00:05:50;8.32;;;6.28;;
16472;SDS011;8347;52.486;13.432;2023-11-21T00:08:38;13.20;;;7.63;;
16472;SDS011;8347;52.486;13.432;2023-11-21T00:11:24;16.88;;;8.32;;
16472;SDS011;8347;52.486;13.432;2023-11-21T00:14:11;11.40;;;7.97;;
16472;SDS011;8347;52.486;13.432;2023-11-21T00:16:58;16.05;;;9.15;;
16472;SDS011;8347;52.486;13.432;2023-11-21T00:19:45;14.57;;;9.40;;
16472;SDS011;8347;52.486;13.432;2023-11-21T00:22:34;17.10;;;9.85;;
16472;SDS011;8347;52.486;13.432;2023-11-21T00:25:21;20.45;;;10.85;;
16472;SDS011;8347;52.486;13.432;2023-11-21T00:28:08;18.45;;;11.90;;
16472;SDS011;8347;52.486;13.432;2023-11-21T00:30:54;25.10;;;12.63;;
16472;SDS011;8347;52.486;13.432;2023-11-21T00:33:41;29.98;;;14.57;;
16472;SDS011;8347;52.486;13.432;2023-11-21T00:36:28;27.23;;;14.25;;
16472;SDS011;8347;52.486;13.432;2023-11-21T00:39:15;32.50;;;15.27;;
16472;SDS011;8347;52.486;13.432;2023-11-21T00:42:01;29.90;;;14.85;;
16472;SDS011;8347;52.486;13.432;2023-11-21T00:44:48;33.00;;;16.27;;
16472;SDS011;8347;52.486;13.432;2023-11-21T00:47:34;40.92;;;18.40;;
16472;SDS011;8347;52.486;13.432;2023-11-21T00:50:21;41.85;;;18.55;;
16472;SDS011;8347;52.486;13.432;2023-11-21T00:53:07;39.10;;;17.88;;
16472;SDS011;8347;52.486;13.432;2023-11-21T00:55:54;47.13;;;19.55;;
16472;SDS011;8347;52.486;13.432;2023-11-21T00:58:42;42.55;;;20.08;;
16472;SDS011;8347;52.486;13.432;2023-11-21T01:01:33;46.17;;;19.15;;
16472;SDS011;8347;52.486;13.432;2023-11-21T01:04:20;47.50;;;20.40;;
16472;SDS011;8347;52.486;13.432;2023-11-21T01:07:06;40.55;;;18.30;;
16472;SDS011;8347;52.486;13.432;2023-11-21T01:09:52;39.22;;;18.15;;
16472;SDS011;8347;52.486;13.432;2023-11-21T01:12:39;45.88;;;20.00;;
16472;SDS011;8347;52.486;13.432;2023-11-21T01:15:26;50.72;;;20.88;;
16472;SDS011;8347;52.486;13.432;2023-11-21T01:18:13;48.53;;;18.35;;
16472;SDS011;8347;52.486;13.432;2023-11-21T01:20:59;45.95;;;19.38;;
16472;SDS011;8347;52.486;13.432;2023-11-21T01:23:46;44.95;;;18.42;;
16472;SDS011;8347;52.486;13.432;2023-11-21T01:26:33;53.25;;;19.52;;
16472;SDS011;8347;52.486;13.432;2023-11-21T01:29:21;47.63;;;21.08;;
16472;SDS011;8347;52.486;13.432;2023-11-21T01:32:08;49.13;;;22.15;;
16472;SDS011;8347;52.486;13.432;2023-11-21T01:34:55;48.97;;;21.73;;
16472;SDS011;8347;52.486;13.432;2023-11-21T01:37:42;68.20;;;23.35;;
16472;SDS011;8347;52.486;13.432;2023-11-21T01:40:28;69.78;;;23.98;;
16472;SDS011;8347;52.486;13.432;2023-11-21T01:43:16;74.30;;;25.90;;
16472;SDS011;8347;52.486;13.432;2023-11-21T01:46:04;89.95;;;27.35;;
16472;SDS011;8347;52.486;13.432;2023-11-21T01:48:52;78.03;;;25.42;;
16472;SDS011;8347;52.486;13.432;2023-11-21T01:51:40;96.30;;;27.58;;
16472;SDS011;8347;52.486;13.432;2023-11-21T01:54:29;86.68;;;24.23;;
16472;SDS011;8347;52.486;13.432;2023-11-21T01:57:17;77.35;;;23.90;;
16472;SDS011;8347;52.486;13.432;2023-11-21T02:00:04;68.13;;;21.48;;
16472;SDS011;8347;52.486;13.432;2023-11-21T02:03:05;63.63;;;21.30;;
16472;SDS011;8347;52.486;13.432;2023-11-21T02:05:53;71.25;;;21.05;;
16472;SDS011;8347;52.486;13.432;2023-11-21T02:08:39;68.68;;;21.85;;
16472;SDS011;8347;52.486;13.432;2023-11-21T02:11:28;61.17;;;19.95;;
16472;SDS011;8347;52.486;13.432;2023-11-21T02:14:15;53.42;;;17.58;;
16472;SDS011;8347;52.486;13.432;2023-11-21T02:17:02;56.15;;;17.00;;
16472;SDS011;8347;52.486;13.432;2023-11-21T02:19:50;48.40;;;15.65;;
16472;SDS011;8347;52.486;13.432;2023-11-21T02:22:37;48.42;;;15.10;;
16472;SDS011;8347;52.486;13.432;2023-11-21T02:25:30;59.92;;;16.73;;
16472;SDS011;8347;52.486;13.432;2023-11-21T02:28:17;50.17;;;17.13;;
16472;SDS011;8347;52.486;13.432;2023-11-21T02:31:12;47.72;;;17.20;;
16472;SDS011;8347;52.486;13.432;2023-11-21T02:33:58;41.05;;;15.68;;
16472;SDS011;8347;52.486;13.432;2023-11-21T02:36:45;40.75;;;14.45;;
16472;SDS011;8347;52.486;13.432;2023-11-21T02:39:33;47.83;;;16.73;;
16472;SDS011;8347;52.486;13.432;2023-11-21T02:42:19;55.67;;;17.85;;
16472;SDS011;8347;52.486;13.432;2023-11-21T02:45:06;41.47;;;15.32;;
16472;SDS011;8347;52.486;13.432;2023-11-21T02:47:54;46.78;;;16.08;;
16472;SDS011;8347;52.486;13.432;2023-11-21T02:50:42;39.72;;;15.23;;
16472;SDS011;8347;52.486;13.432;2023-11-21T02:53:29;36.92;;;15.98;;
16472;SDS011;8347;52.486;13.432;2023-11-21T02:56:15;34.33;;;13.25;;
16472;SDS011;8347;52.486;13.432;2023-11-21T02:59:02;26.98;;;11.93;;
16472;SDS011;8347;52.486;13.432;2023-11-21T03:01:49;28.85;;;12.57;;
16472;SDS011;8347;52.486;13.432;2023-11-21T03:04:36;26.13;;;13.05;;
16472;SDS011;8347;52.486;13.432;2023-11-21T03:07:22;25.35;;;12.75;;
16472;SDS011;8347;52.486;13.432;2023-11-21T03:10:08;27.80;;;13.45;;
16472;SDS011;8347;52.486;13.432;2023-11-21T03:12:56;29.10;;;13.18;;
16472;SDS011;8347;52.486;13.432;2023-11-21T03:15:43;26.17;;;12.23;;
16472;SDS011;8347;52.486;13.432;2023-11-21T03:18:30;21.40;;;13.00;;
16472;SDS011;8347;52.486;13.432;2023-11-21T03:21:17;25.13;;;13.18;;
16472;SDS011;8347;52.486;13.432;2023-11-21T03:24:04;24.38;;;13.73;;
16472;SDS011;8347;52.486;13.432;2023-11-21T03:26:52;28.23;;;12.88;;
16472;SDS011;8347;52.486;13.432;2023-11-21T03:29:38;23.95;;;11.65;;
16472;SDS011;8347;52.486;13.432;2023-11-21T03:32:25;25.42;;;13.50;;
16472;SDS011;8347;52.486;13.432;2023-11-21T03:35:12;21.60;;;13.18;;
16472;SDS011;8347;52.486;13.432;2023-11-21T03:37:58;20.63;;;11.85;;
16472;SDS011;8347;52.486;13.432;2023-11-21T03:40:45;20.30;;;12.27;;
16472;SDS011;8347;52.486;13.432;2023-11-21T03:43:32;18.67;;;11.65;;
16472;SDS011;8347;52.486;13.432;2023-11-21T03:46:19;20.50;;;11.63;;
16472;SDS011;8347;52.486;13.432;2023-11-21T03:49:05;20.98;;;12.40;;
16472;SDS011;8347;52.486;13.432;2023-11-21T03:51:51;23.45;;;12.73;;
16472;SDS011;8347;52.486;13.432;2023-11-21T03:54:38;18.02;;;11.70;;
16472;SDS011;8347;52.486;13.432;2023-11-21T03:57:25;21.25;;;11.07;;
16472;SDS011;8347;52.486;13.432;2023-11-21T04:00:13;20.75;;;12.48;;
16472;SDS011;8347;52.486;13.432;2023-11-21T04:03:00;23.00;;;12.48;;
16472;SDS011;8347;52.486;13.432;2023-11-21T04:05:46;19.58;;;11.20;;
16472;SDS011;8347;52.486;13.432;2023-11-21T04:08:33;20.88;;;11.98;;
16472;SDS011;8347;52.486;13.432;2023-11-21T04:11:19;20.08;;;11.82;;
16472;SDS011;8347;52.486;13.432;2023-11-21T04:14:06;18.80;;;11.45;;
16472;SDS011;8347;52.486;13.432;2023-11-21T04:16:52;16.75;;;10.43;;
16472;SDS011;8347;52.486;13.432;2023-11-21T04:19:39;14.65;;;10.07;;
16472;SDS011;8347;52.486;13.432;2023-11-21T04:22:26;17.52;;;10.43;;
16472;SDS011;8347;52.486;13.432;2023-11-21T04:25:14;16.70;;;9.07;;
16472;SDS011;8347;52.486;13.432;2023-11-21T04:28:01;15.07;;;9.05;;
16472;SDS011;8347;52.486;13.432;2023-11-21T04:30:47;16.23;;;8.85;;
16472;SDS011;8347;52.486;13.432;2023-11-21T04:33:34;16.20;;;9.32;;
16472;SDS011;8347;52.486;13.432;2023-11-21T04:36:20;15.13;;;8.77;;
16472;SDS011;8347;52.486;13.432;2023-11-21T04:39:07;14.73;;;8.27;;
16472;SDS011;8347;52.486;13.432;2023-11-21T04:41:53;14.70;;;9.77;;
16472;SDS011;8347;52.486;13.432;2023-11-21T04:44:40;12.57;;;7.35;;
16472;SDS011;8347;52.486;13.432;2023-11-21T04:47:26;15.07;;;8.75;;
16472;SDS011;8347;52.486;13.432;2023-11-21T04:50:13;12.93;;;8.60;;
16472;SDS011;8347;52.486;13.432;2023-11-21T04:52:59;13.65;;;7.85;;
16472;SDS011;8347;52.486;13.432;2023-11-21T04:55:46;16.02;;;8.82;;
16472;SDS011;8347;52.486;13.432;2023-11-21T04:58:34;15.40;;;9.02;;
16472;SDS011;8347;52.486;13.432;2023-11-21T05:01:21;12.05;;;7.80;;
16472;SDS011;8347;52.486;13.432;2023-11-21T05:04:07;14.00;;;8.23;;
16472;SDS011;8347;52.486;13.432;2023-11-21T05:06:54;15.38;;;7.80;;
16472;SDS011;8347;52.486;13.432;2023-11-21T05:09:42;15.02;;;7.75;;
16472;SDS011;8347;52.486;13.432;2023-11-21T05:12:31;12.55;;;7.20;;
16472;SDS011;8347;52.486;13.432;2023-11-21T05:15:23;13.38;;;8.13;;
16472;SDS011;8347;52.486;13.432;2023-11-21T05:18:10;13.95;;;7.55;;
16472;SDS011;8347;52.486;13.432;2023-11-21T05:20:57;11.10;;;7.20;;
16472;SDS011;8347;52.486;13.432;2023-11-21T05:23:43;15.50;;;8.57;;
16472;SDS011;8347;52.486;13.432;2023-11-21T05:26:30;10.80;;;7.53;;
16472;SDS011;8347;52.486;13.432;2023-11-21T05:29:17;13.98;;;8.20;;
16472;SDS011;8347;52.486;13.432;2023-11-21T05:32:03;13.85;;;7.65;;
16472;SDS011;8347;52.486;13.432;2023-11-21T05:34:50;14.80;;;7.68;;
16472;SDS011;8347;52.486;13.432;2023-11-21T05:37:36;13.93;;;8.32;;
16472;SDS011;8347;52.486;13.432;2023-11-21T05:40:24;15.48;;;9.00;;
16472;SDS011;8347;52.486;13.432;2023-11-21T05:43:15;12.32;;;7.55;;
16472;SDS011;8347;52.486;13.432;2023-11-21T05:46:01;16.45;;;8.27;;
16472;SDS011;8347;52.486;13.432;2023-11-21T05:48:47;14.90;;;8.95;;
16472;SDS011;8347;52.486;13.432;2023-11-21T05:51:34;13.65;;;8.20;;
16472;SDS011;8347;52.486;13.432;2023-11-21T05:54:20;14.63;;;7.47;;
16472;SDS011;8347;52.486;13.432;2023-11-21T05:57:07;11.60;;;8.18;;
16472;SDS011;8347;52.486;13.432;2023-11-21T05:59:54;13.95;;;8.75;;
16472;SDS011;8347;52.486;13.432;2023-11-21T06:02:41;13.57;;;8.10;;
16472;SDS011;8347;52.486;13.432;2023-11-21T06:05:27;14.07;;;9.77;;
16472;SDS011;8347;52.486;13.432;2023-11-21T06:08:14;13.35;;;7.70;;
16472;SDS011;8347;52.486;13.432;2023-11-21T06:11:02;14.02;;;8.40;;
16472;SDS011;8347;52.486;13.432;2023-11-21T06:13:48;17.23;;;10.02;;
16472;SDS011;8347;52.486;13.432;2023-11-21T06:16:35;14.73;;;8.85;;
16472;SDS011;8347;52.486;13.432;2023-11-21T06:19:22;12.93;;;9.05;;
16472;SDS011;8347;52.486;13.432;2023-11-21T06:22:08;15.20;;;8.82;;
16472;SDS011;8347;52.486;13.432;2023-11-21T06:24:56;13.65;;;8.20;;
16472;SDS011;8347;52.486;13.432;2023-11-21T06:27:46;11.95;;;7.43;;
16472;SDS011;8347;52.486;13.432;2023-11-21T06:30:33;13.80;;;7.90;;
16472;SDS011;8347;52.486;13.432;2023-11-21T06:33:20;14.32;;;7.85;;
16472;SDS011;8347;52.486;13.432;2023-11-21T06:36:07;10.93;;;7.22;;
16472;SDS011;8347;52.486;13.432;2023-11-21T06:38:57;14.57;;;7.25;;
16472;SDS011;8347;52.486;13.432;2023-11-21T06:41:43;12.95;;;7.22;;
16472;SDS011;8347;52.486;13.432;2023-11-21T06:44:29;12.73;;;7.43;;
16472;SDS011;8347;52.486;13.432;2023-11-21T06:47:16;11.88;;;7.05;;
16472;SDS011;8347;52.486;13.432;2023-11-21T06:50:03;11.23;;;7.00;;
16472;SDS011;8347;52.486;13.432;2023-11-21T06:52:50;14.73;;;7.00;;
16472;SDS011;8347;52.486;13.432;2023-11-21T06:55:37;9.90;;;6.47;;
16472;SDS011;8347;52.486;13.432;2023-11-21T06:58:23;11.10;;;6.53;;
16472;SDS011;8347;52.486;13.432;2023-11-21T07:01:10;8.27;;;6.05;;
16472;SDS011;8347;52.486;13.432;2023-11-21T07:03:56;11.48;;;7.38;;
16472;SDS011;8347;52.486;13.432;2023-11-21T07:06:43;11.48;;;6.97;;
16472;SDS011;8347;52.486;13.432;2023-11-21T07:09:30;10.00;;;6.82;;
16472;SDS011;8347;52.486;13.432;2023-11-21T07:12:16;10.25;;;6.97;;
16472;SDS011;8347;52.486;13.432;2023-11-21T07:15:03;12.43;;;6.65;;
16472;SDS011;8347;52.486;13.432;2023-11-21T07:17:52;11.95;;;6.70;;
16472;SDS011;8347;52.486;13.432;2023-11-21T07:20:39;8.48;;;6.75;;
16472;SDS011;8347;52.486;13.432;2023-11-21T07:23:26;10.02;;;6.68;;
16472;SDS011;8347;52.486;13.432;2023-11-21T07:26:12;9.27;;;6.13;;
16472;SDS011;8347;52.486;13.432;2023-11-21T07:28:59;11.00;;;6.53;;
16472;SDS011;8347;52.486;13.432;2023-11-21T07:31:46;8.48;;;6.00;;
16472;SDS011;8347;52.486;13.432;2023-11-21T07:34:32;12.38;;;6.68;;
16472;SDS011;8347;52.486;13.432;2023-11-21T07:37:18;10.05;;;6.05;;
16472;SDS011;8347;52.486;13.432;2023-11-21T07:40:05;11.95;;;6.97;;
16472;SDS011;8347;52.486;13.432;2023-11-21T07:42:54;10.77;;;6.55;;
16472;SDS011;8347;52.486;13.432;2023-11-21T07:45:44;10.57;;;5.80;;
16472;SDS011;8347;52.486;13.432;2023-11-21T07:48:30;7.80;;;5.47;;
16472;SDS011;8347;52.486;13.432;2023-11-21T07:51:17;10.88;;;6.28;;
16472;SDS011;8347;52.486;13.432;2023-11-21T07:54:04;9.27;;;5.85;;
16472;SDS011;8347;52.486;13.432;2023-11-21T07:56:51;9.18;;;5.50;;
16472;SDS011;8347;52.486;13.432;2023-11-21T07:59:38;8.65;;;5.47;;
16472;SDS011;8347;52.486;13.432;2023-11-21T08:02:24;8.23;;;5.55;;
16472;SDS011;8347;52.486;13.432;2023-11-21T08:05:13;8.73;;;5.68;;
16472;SDS011;8347;52.486;13.432;2023-11-21T08:07:59;10.65;;;5.50;;
16472;SDS011;8347;52.486;13.432;2023-11-21T08:10:46;7.85;;;5.03;;
16472;SDS011;8347;52.486;13.432;2023-11-21T08:13:41;10.85;;;5.70;;
16472;SDS011;8347;52.486;13.432;2023-11-21T08:16:28;9.70;;;6.03;;
16472;SDS011;8347;52.486;13.432;2023-11-21T08:19:15;14.93;;;5.78;;
16472;SDS011;8347;52.486;13.432;2023-11-21T08:22:03;10.15;;;5.18;;
16472;SDS011;8347;52.486;13.432;2023-11-21T08:24:50;10.35;;;6.15;;
16472;SDS011;8347;52.486;13.432;2023-11-21T08:27:37;11.20;;;5.18;;
16472;SDS011;8347;52.486;13.432;2023-11-21T08:30:25;11.98;;;5.60;;
16472;SDS011;8347;52.486;13.432;2023-11-21T08:33:15;13.93;;;5.80;;
16472;SDS011;8347;52.486;13.432;2023-11-21T08:36:06;14.63;;;6.47;;
16472;SDS011;8347;52.486;13.432;2023-11-21T08:38:52;14.73;;;6.50;;
16472;SDS011;8347;52.486;13.432;2023-11-21T08:41:40;14.32;;;6.30;;
16472;SDS011;8347;52.486;13.432;2023-11-21T08:44:27;15.75;;;6.80;;
16472;SDS011;8347;52.486;13.432;2023-11-21T08:47:13;16.02;;;6.88;;
16472;SDS011;8347;52.486;13.432;2023-11-21T08:50:00;15.27;;;6.70;;
16472;SDS011;8347;52.486;13.432;2023-11-21T08:52:47;18.00;;;7.45;;
16472;SDS011;8347;52.486;13.432;2023-11-21T08:55:33;25.40;;;8.38;;
16472;SDS011;8347;52.486;13.432;2023-11-21T08:58:23;24.45;;;8.73;;
16472;SDS011;8347;52.486;13.432;2023-11-21T09:01:09;15.18;;;7.40;;
16472;SDS011;8347;52.486;13.432;2023-11-21T09:03:57;16.35;;;6.60;;
16472;SDS011;8347;52.486;13.432;2023-11-21T09:06:44;16.88;;;6.65;;
16472;SDS011;8347;52.486;13.432;2023-11-21T09:09:31;12.45;;;6.32;;
16472;SDS011;8347;52.486;13.432;2023-11-21T09:12:17;19.42;;;6.90;;
16472;SDS011;8347;52.486;13.432;2023-11-21T09:15:05;19.17;;;6.68;;
16472;SDS011;8347;52.486;13.432;2023-11-21T09:17:52;19.85;;;7.30;;
16472;SDS011;8347;52.486;13.432;2023-11-21T09:20:39;16.52;;;6.72;;
16472;SDS011;8347;52.486;13.432;2023-11-21T09:23:25;16.65;;;7.63;;
16472;SDS011;8347;52.486;13.432;2023-11-21T09:26:12;17.85;;;8.32;;
16472;SDS011;8347;52.486;13.432;2023-11-21T09:28:58;18.88;;;6.57;;
16472;SDS011;8347;52.486;13.432;2023-11-21T09:31:45;16.08;;;5.90;;
16472;SDS011;8347;52.486;13.432;2023-11-21T09:34:32;16.85;;;7.43;;
16472;SDS011;8347;52.486;13.432;2023-11-21T09:37:21;12.43;;;5.80;;
16472;SDS011;8347;52.486;13.432;2023-11-21T09:40:09;13.77;;;5.78;;
16472;SDS011;8347;52.486;13.432;2023-11-21T09:42:59;10.13;;;5.65;;
16472;SDS011;8347;52.486;13.432;2023-11-21T09:45:47;10.85;;;4.85;;
16472;SDS011;8347;52.486;13.432;2023-11-21T09:48:36;10.80;;;5.53;;
16472;SDS011;8347;52.486;13.432;2023-11-21T09:51:25;8.85;;;4.60;;
16472;SDS011;8347;52.486;13.432;2023-11-21T09:54:15;12.25;;;5.00;;
16472;SDS011;8347;52.486;13.432;2023-11-21T09:57:03;9.48;;;4.78;;
16472;SDS011;8347;52.486;13.432;2023-11-21T09:59:51;8.48;;;4.82;;
16472;SDS011;8347;52.486;13.432;2023-11-21T10:02:44;6.07;;;3.47;;
16472;SDS011;8347;52.486;13.432;2023-11-21T10:05:32;5.70;;;2.63;;
16472;SDS011;8347;52.486;13.432;2023-11-21T10:08:19;4.68;;;2.90;;
16472;SDS011;8347;52.486;13.432;2023-11-21T10:11:09;6.05;;;2.70;;
16472;SDS011;8347;52.486;13.432;2023-11-21T10:13:57;2.53;;;2.33;;
16472;SDS011;8347;52.486;13.432;2023-11-21T10:16:46;3.22;;;2.28;;
16472;SDS011;8347;52.486;13.432;2023-11-21T10:19:35;4.90;;;2.15;;
16472;SDS011;8347;52.486;13.432;2023-11-21T10:22:22;4.93;;;2.20;;
16472;SDS011;8347;52.486;13.432;2023-11-21T10:25:09;4.78;;;2.38;;
16472;SDS011;8347;52.486;13.432;2023-11-21T10:27:59;4.07;;;2.45;;
16472;SDS011;8347;52.486;13.432;2023-11-21T10:30:46;4.80;;;2.20;;
16472;SDS011;8347;52.486;13.432;2023-11-21T10:33:33;5.68;;;2.58;;
16472;SDS011;8347;52.486;13.432;2023-11-21T10:36:24;5.10;;;3.20;;
16472;SDS011;8347;52.486;13.432;2023-11-21T10:39:17;2.90;;;2.60;;
16472;SDS011;8347;52.486;13.432;2023-11-21T10:42:04;4.13;;;2.67;;
16472;SDS011;8347;52.486;13.432;2023-11-21T10:44:54;3.33;;;2.50;;
16472;SDS011;8347;52.486;13.432;2023-11-21T10:47:42;4.13;;;2.40;;
16472;SDS011;8347;52.486;13.432;2023-11-21T10:50:28;3.42;;;2.53;;
16472;SDS011;8347;52.486;13.432;2023-11-21T10:53:15;5.82;;;2.72;;
16472;SDS011;8347;52.486;13.432;2023-11-21T10:56:05;5.90;;;3.28;;
16472;SDS011;8347;52.486;13.432;2023-11-21T10:58:57;4.07;;;2.63;;
16472;SDS011;8347;52.486;13.432;2023-11-21T11:01:44;4.50;;;3.15;;
16472;SDS011;8347;52.486;13.432;2023-11-21T11:04:31;5.65;;;2.80;;
16472;SDS011;8347;52.486;13.432;2023-11-21T11:07:18;5.57;;;3.25;;
16472;SDS011;8347;52.486;13.432;2023-11-21T11:10:07;5.80;;;3.17;;
16472;SDS011;8347;52.486;13.432;2023-11-21T11:12:59;6.97;;;4.32;;
16472;SDS011;8347;52.486;13.432;2023-11-21T11:15:47;6.57;;;3.65;;
16472;SDS011;8347;52.486;13.432;2023-11-21T11:18:33;4.20;;;3.15;;
16472;SDS011;8347;52.486;13.432;2023-11-21T11:21:23;4.63;;;3.45;;
16472;SDS011;8347;52.486;13.432;2023-11-21T11:27:30;7.22;;;3.70;;
16472;SDS011;8347;52.486;13.432;2023-11-21T11:30:28;3.92;;;3.15;;
16472;SDS011;8347;52.486;13.432;2023-11-21T11:36:36;3.70;;;3.22;;
16472;SDS011;8347;52.486;13.432;2023-11-21T11:39:42;6.25;;;3.53;;
16472;SDS011;8347;52.486;13.432;2023-11-21T11:42:29;5.57;;;4.22;;
16472;SDS011;8347;52.486;13.432;2023-11-21T11:45:19;3.78;;;3.13;;
16472;SDS011;8347;52.486;13.432;2023-11-21T11:48:06;6.47;;;3.42;;
16472;SDS011;8347;52.486;13.432;2023-11-21T11:54:08;7.03;;;4.00;;
16472;SDS011;8347;52.486;13.432;2023-11-21T11:56:54;6.30;;;4.03;;
16472;SDS011;8347;52.486;13.432;2023-11-21T12:03:11;3.38;;;3.08;;
16472;SDS011;8347;52.486;13.432;2023-11-21T12:06:00;3.85;;;3.00;;
16472;SDS011;8347;52.486;13.432;2023-11-21T12:08:46;4.13;;;3.42;;
16472;SDS011;8347;52.486;13.432;2023-11-21T12:11:33;6.93;;;3.90;;
16472;SDS011;8347;52.486;13.432;2023-11-21T12:14:21;6.38;;;3.55;;
16472;SDS011;8347;52.486;13.432;2023-11-21T12:17:07;4.07;;;3.40;;
16472;SDS011;8347;52.486;13.432;2023-11-21T12:20:00;5.70;;;4.13;;
16472;SDS011;8347;52.486;13.432;2023-11-21T12:22:49;5.00;;;3.88;;
16472;SDS011;8347;52.486;13.432;2023-11-21T12:25:38;4.88;;;3.83;;
16472;SDS011;8347;52.486;13.432;2023-11-21T12:28:25;5.07;;;2.90;;
16472;SDS011;8347;52.486;13.432;2023-11-21T12:31:13;3.55;;;2.80;;
16472;SDS011;8347;52.486;13.432;2023-11-21T12:34:00;4.22;;;3.25;;
16472;SDS011;8347;52.486;13.432;2023-11-21T12:36:47;5.15;;;3.10;;
16472;SDS011;8347;52.486;13.432;2023-11-21T12:39:35;6.03;;;3.45;;
16472;SDS011;8347;52.486;13.432;2023-11-21T12:42:21;4.70;;;2.58;;
16472;SDS011;8347;52.486;13.432;2023-11-21T12:45:18;3.60;;;2.30;;
16472;SDS011;8347;52.486;13.432;2023-11-21T12:48:05;4.32;;;2.60;;
16472;SDS011;8347;52.486;13.432;2023-11-21T12:50:56;4.45;;;2.45;;
16472;SDS011;8347;52.486;13.432;2023-11-21T12:53:45;5.53;;;3.08;;
16472;SDS011;8347;52.486;13.432;2023-11-21T12:56:32;3.17;;;2.78;;
16472;SDS011;8347;52.486;13.432;2023-11-21T12:59:20;4.82;;;3.00;;
16472;SDS011;8347;52.486;13.432;2023-11-21T13:02:07;4.93;;;3.05;;
16472;SDS011;8347;52.486;13.432;2023-11-21T13:04:56;4.13;;;2.95;;
16472;SDS011;8347;52.486;13.432;2023-11-21T13:07:45;4.57;;;2.92;;
16472;SDS011;8347;52.486;13.432;2023-11-21T13:10:33;5.57;;;3.38;;
16472;SDS011;8347;52.486;13.432;2023-11-21T13:13:22;5.78;;;3.22;;
16472;SDS011;8347;52.486;13.432;2023-11-21T13:16:09;7.35;;;3.85;;
16472;SDS011;8347;52.486;13.432;2023-11-21T13:18:56;6.18;;;4.60;;
16472;SDS011;8347;52.486;13.432;2023-11-21T13:21:43;4.60;;;3.70;;
16472;SDS011;8347;52.486;13.432;2023-11-21T13:24:30;3.63;;;2.75;;
16472;SDS011;8347;52.486;13.432;2023-11-21T13:27:17;4.88;;;3.42;;
16472;SDS011;8347;52.486;13.432;2023-11-21T13:30:04;7.97;;;3.60;;
16472;SDS011;8347;52.486;13.432;2023-11-21T13:32:54;4.90;;;3.17;;
16472;SDS011;8347;52.486;13.432;2023-11-21T13:35:47;4.95;;;3.35;;
16472;SDS011;8347;52.486;13.432;2023-11-21T13:38:35;5.72;;;4.03;;
16472;SDS011;8347;52.486;13.432;2023-11-21T13:41:27;5.47;;;4.22;;
16472;SDS011;8347;52.486;13.432;2023-11-21T13:44:16;7.85;;;6.22;;
16472;SDS011;8347;52.486;13.432;2023-11-21T13:47:12;11.15;;;5.88;;
16472;SDS011;8347;52.486;13.432;2023-11-21T13:49:58;9.80;;;5.80;;
16472;SDS011;8347;52.486;13.432;2023-11-21T13:52:46;9.80;;;6.03;;
16472;SDS011;8347;52.486;13.432;2023-11-21T13:55:32;11.60;;;5.28;;
16472;SDS011;8347;52.486;13.432;2023-11-21T13:58:19;9.07;;;5.63;;
16472;SDS011;8347;52.486;13.432;2023-11-21T14:01:09;7.43;;;5.15;;
16472;SDS011;8347;52.486;13.432;2023-11-21T14:04:14;8.07;;;5.55;;
16472;SDS011;8347;52.486;13.432;2023-11-21T14:07:04;8.35;;;5.57;;
16472;SDS011;8347;52.486;13.432;2023-11-21T14:10:10;10.55;;;6.05;;
16472;SDS011;8347;52.486;13.432;2023-11-21T14:13:00;10.82;;;6.35;;
16472;SDS011;8347;52.486;13.432;2023-11-21T14:15:46;9.40;;;6.90;;
16472;SDS011;8347;52.486;13.432;2023-11-21T14:18:36;12.02;;;7.32;;
16472;SDS011;8347;52.486;13.432;2023-11-21T14:21:36;18.15;;;7.63;;
16472;SDS011;8347;52.486;13.432;2023-11-21T14:24:22;14.30;;;8.70;;
16472;SDS011;8347;52.486;13.432;2023-11-21T14:27:10;16.77;;;8.60;;
16472;SDS011;8347;52.486;13.432;2023-11-21T14:29:56;15.35;;;9.60;;
16472;SDS011;8347;52.486;13.432;2023-11-21T14:32:44;18.55;;;11.07;;
16472;SDS011;8347;52.486;13.432;2023-11-21T14:35:30;18.02;;;10.60;;
16472;SDS011;8347;52.486;13.432;2023-11-21T14:38:18;19.83;;;11.50;;
16472;SDS011;8347;52.486;13.432;2023-11-21T14:41:04;20.27;;;12.82;;
16472;SDS011;8347;52.486;13.432;2023-11-21T14:43:54;25.75;;;13.27;;
16472;SDS011;8347;52.486;13.432;2023-11-21T14:46:41;20.33;;;12.68;;
16472;SDS011;8347;52.486;13.432;2023-11-21T14:49:31;26.00;;;13.50;;
16472;SDS011;8347;52.486;13.432;2023-11-21T14:52:31;21.40;;;13.13;;
16472;SDS011;8347;52.486;13.432;2023-11-21T14:55:23;21.98;;;14.70;;
16472;SDS011;8347;52.486;13.432;2023-11-21T14:58:17;29.25;;;15.63;;
16472;SDS011;8347;52.486;13.432;2023-11-21T15:01:13;22.95;;;14.20;;
16472;SDS011;8347;52.486;13.432;2023-11-21T15:03:59;26.90;;;15.57;;
16472;SDS011;8347;52.486;13.432;2023-11-21T15:06:47;28.45;;;16.30;;
16472;SDS011;8347;52.486;13.432;2023-11-21T15:09:34;29.38;;;16.23;;
16472;SDS011;8347;52.486;13.432;2023-11-21T15:12:24;26.30;;;15.57;;
16472;SDS011;8347;52.486;13.432;2023-11-21T15:15:13;28.90;;;16.13;;
16472;SDS011;8347;52.486;13.432;2023-11-21T15:18:00;30.05;;;15.70;;
16472;SDS011;8347;52.486;13.432;2023-11-21T15:20:47;26.92;;;14.55;;
16472;SDS011;8347;52.486;13.432;2023-11-21T15:23:33;25.77;;;14.30;;
16472;SDS011;8347;52.486;13.432;2023-11-21T15:26:20;23.73;;;14.55;;
16472;SDS011;8347;52.486;13.432;2023-11-21T15:29:08;23.42;;;14.50;;
16472;SDS011;8347;52.486;13.432;2023-11-21T15:31:54;23.75;;;14.13;;
16472;SDS011;8347;52.486;13.432;2023-11-21T15:34:42;23.98;;;13.20;;
16472;SDS011;8347;52.486;13.432;2023-11-21T15:37:28;20.48;;;12.27;;
16472;SDS011;8347;52.486;13.432;2023-11-21T15:40:15;19.77;;;12.20;;
16472;SDS011;8347;52.486;13.432;2023-11-21T15:43:03;16.38;;;11.05;;
16472;SDS011;8347;52.486;13.432;2023-11-21T15:45:50;19.90;;;11.82;;
16472;SDS011;8347;52.486;13.432;2023-11-21T15:48:36;24.02;;;10.93;;
16472;SDS011;8347;52.486;13.432;2023-11-21T15:51:26;21.77;;;12.43;;
16472;SDS011;8347;52.486;13.432;2023-11-21T15:54:13;19.90;;;12.48;;
16472;SDS011;8347;52.486;13.432;2023-11-21T15:56:59;19.38;;;11.35;;
16472;SDS011;8347;52.486;13.432;2023-11-21T15:59:46;15.88;;;9.95;;
16472;SDS011;8347;52.486;13.432;2023-11-21T16:02:33;17.67;;;10.60;;
16472;SDS011;8347;52.486;13.432;2023-11-21T16:05:19;16.83;;;10.82;;
16472;SDS011;8347;52.486;13.432;2023-11-21T16:08:06;17.60;;;10.35;;
16472;SDS011;8347;52.486;13.432;2023-11-21T16:10:52;17.23;;;10.00;;
16472;SDS011;8347;52.486;13.432;2023-11-21T16:13:39;18.88;;;10.13;;
16472;SDS011;8347;52.486;13.432;2023-11-21T16:16:26;15.70;;;10.02;;
16472;SDS011;8347;52.486;13.432;2023-11-21T16:19:13;15.25;;;10.00;;
16472;SDS011;8347;52.486;13.432;2023-11-21T16:22:00;15.45;;;9.27;;
16472;SDS011;8347;52.486;13.432;2023-11-21T16:24:46;17.92;;;9.75;;
16472;SDS011;8347;52.486;13.432;2023-11-21T16:27:33;18.23;;;10.25;;
16472;SDS011;8347;52.486;13.432;2023-11-21T16:30:19;11.93;;;8.70;;
16472;SDS011;8347;52.486;13.432;2023-11-21T16:33:09;17.08;;;8.90;;
16472;SDS011;8347;52.486;13.432;2023-11-21T16:35:56;12.88;;;8.05;;
16472;SDS011;8347;52.486;13.432;2023-11-21T16:38:44;14.60;;;8.07;;
16472;SDS011;8347;52.486;13.432;2023-11-21T16:41:31;11.65;;;7.80;;
16472;SDS011;8347;52.486;13.432;2023-11-21T16:44:18;13.05;;;7.45;;
16472;SDS011;8347;52.486;13.432;2023-11-21T16:47:05;11.93;;;8.00;;